createdAt,value
2023-01-02T00:01:48.399Z,82.58
2023-01-02T00:04:16.596Z,83.08
2023-01-02T00:06:44.799Z,82.23
2023-01-02T00:09:12.970Z,83.38
2023-01-02T00:11:42.540Z,83.50
2023-01-02T00:14:10.724Z,84.62
2023-01-02T00:16:39.052Z,83.97
2023-01-02T00:19:08.655Z,85.10
2023-01-02T00:21:37.923Z,85.08
2023-01-02T00:24:06.913Z,85.37
2023-01-02T00:26:35.205Z,85.09
2023-01-02T00:29:05.509Z,84.75
2023-01-02T00:31:33.746Z,84.76
2023-01-02T00:34:01.955Z,85.43
2023-01-02T00:36:30.204Z,85.69
2023-01-02T00:38:58.648Z,85.96
2023-01-02T00:41:26.995Z,86.42
2023-01-02T00:43:55.218Z,85.76
2023-01-02T00:46:24.999Z,86.30
2023-01-02T00:48:53.294Z,87.14
2023-01-02T00:51:21.604Z,87.69
2023-01-02T00:53:49.855Z,87.03
2023-01-02T00:56:18.075Z,87.25
2023-01-02T00:58:46.303Z,87.02
2023-01-02T01:01:14.780Z,86.83
2023-01-02T01:03:52.074Z,87.58
2023-01-02T01:06:25.470Z,87.30
2023-01-02T01:08:53.693Z,86.92
2023-01-02T01:11:21.886Z,86.21
2023-01-02T01:13:50.110Z,85.68
2023-01-02T01:16:20.586Z,85.22
2023-01-02T01:18:50.441Z,85.57
2023-01-02T01:21:21.669Z,85.05
2023-01-02T01:23:52.719Z,85.32
2023-01-02T01:26:22.651Z,85.30
2023-01-02T01:28:53.404Z,85.72
2023-01-02T01:31:22.444Z,85.63
2023-01-02T01:33:52.946Z,85.93
2023-01-02T01:36:24.858Z,86.53
2023-01-02T01:38:53.123Z,86.95
2023-01-02T01:41:23.754Z,86.40
2023-01-02T01:43:54.777Z,87.58
2023-01-02T01:46:32.371Z,88.00
2023-01-02T01:49:07.136Z,87.79
2023-01-02T01:51:41.683Z,88.35
2023-01-02T01:54:14.204Z,88.12
2023-01-02T01:56:48.809Z,87.72
2023-01-02T01:59:17.784Z,87.71
2023-01-02T02:01:48.375Z,88.83
2023-01-02T02:04:21.485Z,89.06
2023-01-02T02:06:51.129Z,89.00
2023-01-02T02:09:24.957Z,89.24
2023-01-02T02:11:56.104Z,88.61
2023-01-02T02:14:24.290Z,89.14
2023-01-02T02:16:59.982Z,88.44
2023-01-02T02:19:59.141Z,89.35
2023-01-02T02:22:59.871Z,89.49
2023-01-02T02:26:03.029Z,89.72
2023-01-02T02:29:09.823Z,89.94
2023-01-02T02:31:49.530Z,89.65
2023-01-02T02:34:24.770Z,90.42
2023-01-02T02:37:01.875Z,90.70
2023-01-02T02:39:40.629Z,90.22
2023-01-02T02:42:22.545Z,90.36
2023-01-02T02:45:00.025Z,90.31
2023-01-02T02:47:35.555Z,90.95
2023-01-02T02:50:10.758Z,90.43
2023-01-02T02:52:46.698Z,91.29
2023-01-02T02:55:22.055Z,91.37
2023-01-02T02:57:52.164Z,91.01
2023-01-02T03:00:24.116Z,90.59
2023-01-02T03:02:53.997Z,91.20
2023-01-02T03:05:27.155Z,91.68
2023-01-02T03:08:02.871Z,92.13
2023-01-02T03:10:43.211Z,92.11
2023-01-02T03:13:19.667Z,92.57
2023-01-02T03:16:01.175Z,92.37
2023-01-02T03:18:47.424Z,91.75
2023-01-02T03:21:27.944Z,92.38
2023-01-02T03:24:04.707Z,92.23
2023-01-02T03:26:36.153Z,91.78
2023-01-02T03:29:10.774Z,91.91
2023-01-02T03:31:41.747Z,92.16
2023-01-02T03:34:16.279Z,92.76
2023-01-02T03:36:49.211Z,92.28
2023-01-02T03:39:20.550Z,92.09
2023-01-02T03:41:57.423Z,92.38
2023-01-02T03:44:32.322Z,92.67
2023-01-02T03:47:11.865Z,92.95
2023-01-02T03:49:47.239Z,92.94
2023-01-02T03:52:18.721Z,92.64
2023-01-02T03:54:50.017Z,92.72
2023-01-02T03:57:29.711Z,92.79
2023-01-02T04:00:06.052Z,93.12
2023-01-02T04:02:47.668Z,93.15
2023-01-02T04:05:22.189Z,93.40
2023-01-02T04:07:58.249Z,93.11
2023-01-02T04:10:29.799Z,93.20
2023-01-02T04:13:04.087Z,93.60
2023-01-02T04:15:36.117Z,93.29
2023-01-02T04:18:10.103Z,93.37
2023-01-02T04:20:44.493Z,93.71
2023-01-02T04:23:18.188Z,94.35
2023-01-02T04:25:53.536Z,93.83
2023-01-02T04:28:26.413Z,93.35
2023-01-02T04:31:02.614Z,92.55
2023-01-02T04:33:33.157Z,93.36
2023-01-02T04:36:10.898Z,93.59
2023-01-02T04:38:39.668Z,93.68
2023-01-02T04:41:08.609Z,93.39
2023-01-02T04:43:36.840Z,93.50
2023-01-02T04:46:05.176Z,93.56
2023-01-02T04:48:33.496Z,93.20
2023-01-02T04:51:01.796Z,94.14
2023-01-02T04:53:31.414Z,93.28
2023-01-02T04:55:59.984Z,93.67
2023-01-02T04:58:28.260Z,93.64
2023-01-02T05:00:56.711Z,92.94
2023-01-02T05:03:25.394Z,93.40
2023-01-02T05:06:01.498Z,92.74
2023-01-02T05:08:33.723Z,93.64
2023-01-02T05:11:07.863Z,93.10
2023-01-02T05:13:36.824Z,93.28
2023-01-02T05:16:05.881Z,93.18
2023-01-02T05:18:34.231Z,93.37
2023-01-02T05:21:03.995Z,93.86
2023-01-02T05:23:50.555Z,93.29
2023-01-02T05:26:19.547Z,94.12
2023-01-02T05:28:47.955Z,94.24
2023-01-02T05:31:16.263Z,94.07
2023-01-02T05:33:44.534Z,93.88
2023-01-02T05:36:12.818Z,94.11
2023-01-02T05:38:42.401Z,93.75
2023-01-02T05:41:10.631Z,94.22
2023-01-02T05:43:39.521Z,93.33
2023-01-02T05:46:13.216Z,93.38
2023-01-02T05:48:42.407Z,93.16
2023-01-02T05:51:13.333Z,92.54
2023-01-02T05:53:43.413Z,92.15
2023-01-02T05:56:14.350Z,92.97
2023-01-02T05:58:44.881Z,92.99
2023-01-02T06:01:16.121Z,92.40
2023-01-02T06:03:46.966Z,92.98
2023-01-02T06:06:17.024Z,93.08
2023-01-02T06:08:46.610Z,93.05
2023-01-02T06:11:15.850Z,92.85
2023-01-02T06:13:44.169Z,92.45
2023-01-02T06:16:13.326Z,92.69
2023-01-02T06:18:42.081Z,92.31
2023-01-02T06:21:13.158Z,91.94
2023-01-02T06:23:42.644Z,92.53
2023-01-02T06:26:14.935Z,92.51
2023-01-02T06:28:44.263Z,92.77
2023-01-02T06:31:15.077Z,92.58
2023-01-02T06:33:44.264Z,92.10
2023-01-02T06:36:14.927Z,91.67
2023-01-02T06:38:47.689Z,91.16
2023-01-02T06:41:18.189Z,90.63
2023-01-02T06:43:48.703Z,90.30
2023-01-02T06:46:18.872Z,90.50
2023-01-02T06:48:47.986Z,90.51
2023-01-02T06:51:19.096Z,90.78
2023-01-02T06:53:47.624Z,90.96
2023-01-02T06:56:19.947Z,90.85
2023-01-02T06:58:48.517Z,91.05
2023-01-02T07:01:22.880Z,91.28
2023-01-02T07:03:57.491Z,91.70
2023-01-02T07:06:28.204Z,91.05
2023-01-02T07:08:56.562Z,91.72
2023-01-02T07:11:26.509Z,92.10
2023-01-02T07:13:56.697Z,92.00
2023-01-02T07:16:26.447Z,92.44
2023-01-02T07:18:55.677Z,93.06
2023-01-02T07:21:24.294Z,92.54
2023-01-02T07:23:52.578Z,92.68
2023-01-02T07:26:21.522Z,93.28
2023-01-02T07:28:51.075Z,92.69
2023-01-02T07:31:22.559Z,92.72
2023-01-02T07:33:51.487Z,92.93
2023-01-02T07:36:22.203Z,92.55
2023-01-02T07:38:51.966Z,91.60
2023-01-02T07:41:22.251Z,91.66
2023-01-02T07:43:52.497Z,91.87
2023-01-02T07:46:21.859Z,92.05
2023-01-02T07:48:50.530Z,92.17
2023-01-02T07:51:26.359Z,92.89
2023-01-02T07:53:56.919Z,92.39
2023-01-02T07:56:25.501Z,92.65
2023-01-02T07:58:55.234Z,93.13
2023-01-02T08:01:23.555Z,93.09
2023-01-02T08:03:51.911Z,92.99
2023-01-02T08:06:20.713Z,92.83
2023-01-02T08:08:49.244Z,93.44
2023-01-02T08:11:21.049Z,92.95
2023-01-02T08:13:49.828Z,93.03
2023-01-02T08:16:21.921Z,93.13
2023-01-02T08:18:55.450Z,93.19
2023-01-02T08:21:24.464Z,92.33
2023-01-02T08:23:52.697Z,92.68
2023-01-02T08:26:21.590Z,92.88
2023-01-02T08:28:49.825Z,92.81
2023-01-02T08:31:22.775Z,92.62
2023-01-02T08:33:51.009Z,92.23
2023-01-02T08:36:20.092Z,92.52
2023-01-02T08:38:49.014Z,92.72
2023-01-02T08:41:31.485Z,92.57
2023-01-02T08:43:59.874Z,92.51
2023-01-02T08:46:30.261Z,92.71
2023-01-02T08:48:58.778Z,92.69
2023-01-02T08:51:27.346Z,92.49
2023-01-02T08:53:56.013Z,92.15
2023-01-02T08:56:26.487Z,91.85
2023-01-02T08:58:56.538Z,91.55
2023-01-02T09:01:50.703Z,91.41
2023-01-02T09:07:17.088Z,90.82
2023-01-02T09:09:45.331Z,90.68
2023-01-02T09:12:13.557Z,91.27
2023-01-02T09:14:41.793Z,91.62
2023-01-02T09:17:10.605Z,91.16
2023-01-02T09:19:41.215Z,90.92
2023-01-02T09:22:10.364Z,90.63
2023-01-02T09:24:39.593Z,90.67
2023-01-02T09:27:07.790Z,90.94
2023-01-02T09:29:36.018Z,90.43
2023-01-02T09:32:04.273Z,88.85
2023-01-02T09:34:32.559Z,89.70
2023-01-02T09:37:02.660Z,89.45
2023-01-02T09:39:32.881Z,89.89
2023-01-02T09:42:04.476Z,90.47
2023-01-02T09:44:41.165Z,92.54
2023-01-02T09:47:16.044Z,92.87
2023-01-02T09:49:48.662Z,93.33
2023-01-02T09:52:23.080Z,93.64
2023-01-02T09:54:51.350Z,93.31
2023-01-02T09:57:40.116Z,93.48
2023-01-02T10:00:15.855Z,93.44
2023-01-02T10:03:07.996Z,93.71
2023-01-02T10:06:13.479Z,92.60
2023-01-02T10:08:54.188Z,91.30
2023-01-02T10:11:41.514Z,89.71
2023-01-02T10:14:20.522Z,90.25
2023-01-02T10:16:54.405Z,89.67
2023-01-02T10:19:29.135Z,87.04
2023-01-02T10:22:01.784Z,84.86
2023-01-02T10:24:41.751Z,84.55
2023-01-02T10:27:17.592Z,84.53
2023-01-02T10:29:52.181Z,82.19
2023-01-02T10:32:23.042Z,82.39
2023-01-02T10:35:01.620Z,81.54
2023-01-02T10:37:30.305Z,79.76
2023-01-02T10:40:00.104Z,79.02
2023-01-02T10:42:28.724Z,81.23
2023-01-02T10:44:56.968Z,81.79
2023-01-02T10:47:34.781Z,79.52
2023-01-02T10:50:06.019Z,80.12
2023-01-02T10:52:37.182Z,81.98
2023-01-02T10:55:07.655Z,84.80
2023-01-02T10:57:42.271Z,86.86
2023-01-02T11:00:30.352Z,87.54
2023-01-02T11:03:10.125Z,86.78
2023-01-02T11:05:47.942Z,85.15
2023-01-02T11:08:19.729Z,76.20
2023-01-02T11:10:50.442Z,76.93
2023-01-02T11:13:21.009Z,76.21
2023-01-02T11:15:52.838Z,73.83
2023-01-02T11:18:26.129Z,72.77
2023-01-02T11:21:04.135Z,74.20
2023-01-02T11:23:37.383Z,75.33
2023-01-02T11:26:14.482Z,72.51
2023-01-02T11:28:43.715Z,73.88
2023-01-02T11:31:16.398Z,73.33
2023-01-02T11:33:46.917Z,74.11
2023-01-02T11:36:20.233Z,74.50
2023-01-02T11:38:50.774Z,74.98
2023-01-02T11:41:50.457Z,69.25
2023-01-02T11:44:25.875Z,65.83
2023-01-02T11:46:55.088Z,63.46
2023-01-02T11:49:28.044Z,62.85
2023-01-02T11:52:02.501Z,61.83
2023-01-02T11:54:40.327Z,62.37
2023-01-02T11:57:18.926Z,62.59
2023-01-02T11:59:49.792Z,61.44
2023-01-02T12:02:27.330Z,60.15
2023-01-02T12:04:56.464Z,58.78
2023-01-02T12:07:43.265Z,57.89
2023-01-02T12:10:28.162Z,57.32
2023-01-02T12:13:31.417Z,57.90
2023-01-02T12:16:15.458Z,57.61
2023-01-02T12:19:02.471Z,59.02
2023-01-02T12:21:39.673Z,57.41
2023-01-02T12:24:48.391Z,58.75
2023-01-02T12:27:22.697Z,59.00
2023-01-02T12:30:05.492Z,58.14
2023-01-02T12:33:05.255Z,58.38
2023-01-02T12:36:15.523Z,58.66
2023-01-02T12:39:29.226Z,58.74
2023-01-02T12:42:18.798Z,58.93
2023-01-02T12:44:53.607Z,59.44
2023-01-02T12:47:47.661Z,59.79
2023-01-02T12:50:37.170Z,65.00
2023-01-02T12:53:24.442Z,58.76
2023-01-02T12:56:03.578Z,59.19
2023-01-02T12:58:50.308Z,58.26
2023-01-02T13:01:23.312Z,59.58
2023-01-02T13:04:02.952Z,59.64
2023-01-02T13:06:47.092Z,58.95
2023-01-02T13:09:25.076Z,59.09
2023-01-02T13:12:01.888Z,58.01
2023-01-02T13:14:39.245Z,57.61
2023-01-02T13:17:31.568Z,57.04
2023-01-02T13:20:08.253Z,56.86
2023-01-02T13:22:47.748Z,56.48
2023-01-02T13:25:22.512Z,57.25
2023-01-02T13:28:00.182Z,55.82
2023-01-02T13:30:41.192Z,55.40
2023-01-02T13:33:24.006Z,56.61
2023-01-02T13:35:53.777Z,55.58
2023-01-02T13:38:29.855Z,56.21
2023-01-02T13:41:00.701Z,56.30
2023-01-02T13:43:32.226Z,56.51
2023-01-02T13:46:01.876Z,56.39
2023-01-02T13:48:36.424Z,58.48
2023-01-02T13:51:14.704Z,58.39
2023-01-02T13:53:45.525Z,59.50
2023-01-02T13:56:15.768Z,59.12
2023-01-02T13:58:50.274Z,58.98
2023-01-02T14:01:56.287Z,58.85
2023-01-02T14:04:39.910Z,58.92
2023-01-02T14:07:46.254Z,59.66
2023-01-02T14:10:35.360Z,59.75
2023-01-02T14:13:26.235Z,59.91
2023-01-02T14:16:24.450Z,60.31
2023-01-02T14:19:22.689Z,61.42
2023-01-02T14:22:05.961Z,61.83
2023-01-02T14:24:39.984Z,62.51
2023-01-02T14:27:22.738Z,63.08
2023-01-02T14:29:54.007Z,63.72
2023-01-02T14:32:27.533Z,64.57
2023-01-02T14:34:59.027Z,64.97
2023-01-02T14:37:39.212Z,65.35
2023-01-02T14:40:19.124Z,66.04
2023-01-02T14:43:12.267Z,66.88
2023-01-02T14:45:44.778Z,66.97
2023-01-02T14:48:18.180Z,67.25
2023-01-02T14:50:50.205Z,67.61
2023-01-02T14:53:23.560Z,68.60
2023-01-02T14:55:58.380Z,68.85
2023-01-02T14:58:37.210Z,68.88
2023-01-02T15:01:07.207Z,68.97
2023-01-02T15:03:49.559Z,69.70
2023-01-02T15:06:30.184Z,69.54
2023-01-02T15:09:10.815Z,69.61
2023-01-02T15:12:10.913Z,69.68
2023-01-02T15:14:40.583Z,69.32
2023-01-02T15:17:11.455Z,69.61
2023-01-02T15:19:42.373Z,70.54
2023-01-02T15:22:12.262Z,70.40
2023-01-02T15:24:41.233Z,70.77
2023-01-02T15:27:25.388Z,70.86
2023-01-02T15:29:57.889Z,70.83
2023-01-02T15:32:28.629Z,70.88
2023-01-02T15:35:14.736Z,71.28
2023-01-02T15:37:44.833Z,70.91
2023-01-02T15:40:17.141Z,71.50
2023-01-02T15:43:04.447Z,72.17
2023-01-02T15:45:34.104Z,73.53
2023-01-02T15:48:02.971Z,74.86
2023-01-02T15:50:33.062Z,76.08
2023-01-02T15:53:05.655Z,77.02
2023-01-02T15:55:38.817Z,77.76
2023-01-02T15:58:27.430Z,77.36
2023-01-02T16:01:16.792Z,77.97
2023-01-02T16:04:00.752Z,80.05
2023-01-02T16:06:35.374Z,79.80
2023-01-02T16:09:07.878Z,81.39
2023-01-02T16:11:46.245Z,82.70
2023-01-02T16:14:20.762Z,85.30
2023-01-02T16:16:53.079Z,86.42
2023-01-02T16:19:26.709Z,85.93
2023-01-02T16:22:06.098Z,87.21
2023-01-02T16:24:37.153Z,86.13
2023-01-02T16:27:06.840Z,87.84
2023-01-02T16:29:43.621Z,88.40
2023-01-02T16:32:29.884Z,88.60
2023-01-02T16:35:06.041Z,87.79
2023-01-02T16:37:38.821Z,87.44
2023-01-02T16:41:00.452Z,88.02
2023-01-02T16:43:33.394Z,86.97
2023-01-02T16:46:12.394Z,86.71
2023-01-02T16:48:42.088Z,85.81
2023-01-02T16:51:10.582Z,85.25
2023-01-02T16:53:43.265Z,87.17
2023-01-02T16:56:12.769Z,86.32
2023-01-02T16:58:41.092Z,85.11
2023-01-02T17:01:13.462Z,86.39
2023-01-02T17:03:43.480Z,87.07
2023-01-02T17:06:19.155Z,85.57
2023-01-02T17:08:48.071Z,85.60
2023-01-02T17:11:18.827Z,85.51
2023-01-02T17:13:47.182Z,86.14
2023-01-02T17:16:16.970Z,86.22
2023-01-02T17:18:45.271Z,85.17
2023-01-02T17:21:13.717Z,86.55
2023-01-02T17:23:42.002Z,84.97
2023-01-02T17:26:10.340Z,85.55
2023-01-02T17:28:38.544Z,85.54
2023-01-02T17:31:06.922Z,85.82
2023-01-02T17:33:36.468Z,85.73
2023-01-02T17:36:07.674Z,85.97
2023-01-02T17:38:36.201Z,86.59
2023-01-02T17:41:04.634Z,86.44
2023-01-02T17:43:33.927Z,86.03
2023-01-02T17:46:30.518Z,86.47
2023-01-02T17:48:56.178Z,85.71
2023-01-02T17:51:24.388Z,86.81
2023-01-02T17:53:55.881Z,85.99
2023-01-02T17:56:24.512Z,85.98
2023-01-02T17:58:52.834Z,85.62
2023-01-02T18:01:22.043Z,85.18
2023-01-02T18:03:50.424Z,84.00
2023-01-02T18:06:20.712Z,84.58
2023-01-02T18:08:49.129Z,83.66
2023-01-02T18:11:18.196Z,83.83
2023-01-02T18:13:49.568Z,83.43
2023-01-02T18:16:22.098Z,83.25
2023-01-02T18:18:53.321Z,83.97
2023-01-02T18:21:26.448Z,84.84
2023-01-02T18:24:00.474Z,83.92
2023-01-02T18:26:29.140Z,84.21
2023-01-02T18:29:02.956Z,85.02
2023-01-02T18:31:41.314Z,84.95
2023-01-02T18:34:46.487Z,85.45
2023-01-02T18:37:20.067Z,85.56
2023-01-02T18:39:49.343Z,85.07
2023-01-02T18:42:21.802Z,84.85
2023-01-02T18:44:50.967Z,85.95
2023-01-02T18:47:28.599Z,85.50
2023-01-02T18:50:03.167Z,85.80
2023-01-02T18:52:34.913Z,85.77
2023-01-02T18:55:17.874Z,86.78
2023-01-02T18:57:48.578Z,87.28
2023-01-02T19:00:25.875Z,87.51
2023-01-02T19:02:58.788Z,89.16
2023-01-02T19:05:30.292Z,88.86
2023-01-02T19:08:16.136Z,86.90
2023-01-02T19:10:48.721Z,87.58
2023-01-02T19:13:20.348Z,86.38
2023-01-02T19:15:51.880Z,87.56
2023-01-02T19:18:35.477Z,88.24
2023-01-02T19:21:18.850Z,87.05
2023-01-02T19:23:53.999Z,86.86
2023-01-02T19:26:28.366Z,87.88
2023-01-02T19:29:00.866Z,87.00
2023-01-02T19:31:41.491Z,87.59
2023-01-02T19:34:27.639Z,88.72
2023-01-02T19:37:21.513Z,88.51
2023-01-02T19:39:54.335Z,88.58
2023-01-02T19:42:25.120Z,88.39
2023-01-02T19:44:55.357Z,88.50
2023-01-02T19:47:26.384Z,89.00
2023-01-02T19:49:55.444Z,88.66
2023-01-02T19:52:25.496Z,90.16
2023-01-02T19:54:55.290Z,90.18
2023-01-02T19:57:25.044Z,90.58
2023-01-02T19:59:55.653Z,91.38
2023-01-02T20:02:25.188Z,92.22
2023-01-02T20:04:55.405Z,93.48
2023-01-02T20:07:25.539Z,93.90
2023-01-02T20:09:55.149Z,93.96
2023-01-02T20:12:34.589Z,93.41
2023-01-02T20:15:07.662Z,93.35
2023-01-02T20:17:37.483Z,93.26
2023-01-02T20:20:07.555Z,93.96
2023-01-02T20:22:36.418Z,94.43
2023-01-02T20:25:07.305Z,94.69
2023-01-02T20:27:35.549Z,94.20
2023-01-02T20:30:04.882Z,94.95
2023-01-02T20:32:33.072Z,94.97
2023-01-02T20:35:01.285Z,95.21
2023-01-02T20:37:31.045Z,95.90
2023-01-02T20:39:59.512Z,96.29
2023-01-02T20:42:29.477Z,96.27
2023-01-02T20:44:57.744Z,96.18
2023-01-02T20:47:26.024Z,96.71
2023-01-02T20:49:54.280Z,96.42
2023-01-02T20:52:22.508Z,96.86
2023-01-02T20:57:24.070Z,96.65
2023-01-02T20:59:53.870Z,97.59
2023-01-02T21:02:22.309Z,98.05
2023-01-02T21:04:50.695Z,98.11
2023-01-02T21:07:24.109Z,97.99
2023-01-02T21:09:57.492Z,98.07
2023-01-02T21:12:43.435Z,98.49
2023-01-02T21:15:33.943Z,98.50
2023-01-02T21:18:02.334Z,97.96
2023-01-02T21:20:30.523Z,97.95
2023-01-02T21:22:58.742Z,97.29
2023-01-02T21:25:27.080Z,97.76
2023-01-02T21:27:55.296Z,97.34
2023-01-02T21:30:25.176Z,97.93
2023-01-02T21:32:54.240Z,98.10
2023-01-02T21:35:22.436Z,97.62
2023-01-02T21:37:52.287Z,98.11
2023-01-02T21:40:20.709Z,98.21
2023-01-02T21:42:49.183Z,97.84
2023-01-02T21:45:17.625Z,97.93
2023-01-02T21:47:47.242Z,97.85
2023-01-02T21:50:15.687Z,98.32
2023-01-02T21:52:43.982Z,98.07
2023-01-02T21:55:17.462Z,98.31
2023-01-02T21:58:12.306Z,98.30
2023-01-02T22:00:34.193Z,98.01
2023-01-02T22:03:03.822Z,98.17
2023-01-02T22:05:32.166Z,98.10
2023-01-02T22:08:00.385Z,97.81
2023-01-02T22:10:28.807Z,98.17
2023-01-02T22:12:57.171Z,97.87
2023-01-02T22:15:25.621Z,97.03
2023-01-02T22:17:55.227Z,97.83
2023-01-02T22:20:24.792Z,96.85
2023-01-02T22:22:52.989Z,96.84
2023-01-02T22:25:21.235Z,96.92
2023-01-02T22:27:49.514Z,96.90
2023-01-02T22:30:22.110Z,96.67
2023-01-02T22:32:55.175Z,97.03
2023-01-02T22:35:24.823Z,96.58
2023-01-02T22:37:53.021Z,97.06
2023-01-02T22:40:21.309Z,96.78
2023-01-02T22:43:04.995Z,96.89
2023-01-02T22:45:41.173Z,96.19
2023-01-02T22:48:19.255Z,96.35
2023-01-02T22:50:51.806Z,95.92
2023-01-02T22:53:31.942Z,96.67
2023-01-02T22:56:01.923Z,96.36
2023-01-02T22:58:30.189Z,95.95
2023-01-02T23:01:02.765Z,96.07
2023-01-02T23:03:35.500Z,96.12
2023-01-02T23:06:05.225Z,96.66
2023-01-02T23:08:33.587Z,96.66
2023-01-02T23:11:02.672Z,96.33
2023-01-02T23:13:31.003Z,96.72
2023-01-02T23:16:17.433Z,96.67
2023-01-02T23:19:03.353Z,96.85
2023-01-02T23:21:35.236Z,96.60
2023-01-02T23:24:04.723Z,97.13
2023-01-02T23:26:37.990Z,96.72
2023-01-02T23:29:08.161Z,96.97
2023-01-02T23:31:39.723Z,97.08
2023-01-02T23:34:08.595Z,97.76
2023-01-02T23:36:39.064Z,97.15
2023-01-02T23:39:12.059Z,97.40
2023-01-02T23:41:41.317Z,97.23
2023-01-02T23:44:10.575Z,97.37
2023-01-02T23:46:39.291Z,97.56
2023-01-02T23:49:08.590Z,97.02
2023-01-02T23:51:38.738Z,97.17
2023-01-02T23:54:08.541Z,97.11
2023-01-02T23:56:38.988Z,97.06
2023-01-02T23:59:14.304Z,96.32
